sensor_id;sensor_type;location;lat;lon;timestamp;pressure;altitude;pressure_sealevel;temperature;humidity
65897;BME280;52677;50.898;10.854;2022-07-23T00:01:11;98721.75;;;18.10;76.28
65897;BME280;52677;50.898;10.854;2022-07-23T00:03:12;98721.31;;;18.11;76.18
65897;BME280;52677;50.898;10.854;2022-07-23T00:05:12;98730.13;;;18.10;75.59
65897;BME280;52677;50.898;10.854;2022-07-23T00:07:13;98732.94;;;18.10;76.03
65897;BME280;52677;50.898;10.854;2022-07-23T00:09:14;98728.56;;;18.09;76.25
65897;BME280;52677;50.898;10.854;2022-07-23T00:11:14;98717.78;;;18.07;76.33
65897;BME280;52677;50.898;10.854;2022-07-23T00:13:14;98709.81;;;18.06;76.23
65897;BME280;52677;50.898;10.854;2022-07-23T00:15:15;98702.63;;;18.05;76.35
65897;BME280;52677;50.898;10.854;2022-07-23T00:17:15;98701.84;;;18.04;76.02
65897;BME280;52677;50.898;10.854;2022-07-23T00:19:16;98696.59;;;18.06;76.17
65897;BME280;52677;50.898;10.854;2022-07-23T00:21:16;98704.59;;;18.08;76.18
65897;BME280;52677;50.898;10.854;2022-07-23T00:23:16;98696.97;;;18.08;76.03
65897;BME280;52677;50.898;10.854;2022-07-23T00:25:17;98699.78;;;18.08;76.24
65897;BME280;52677;50.898;10.854;2022-07-23T00:27:18;98695.38;;;18.07;76.45
65897;BME280;52677;50.898;10.854;2022-07-23T00:29:18;98681.50;;;18.00;76.40
65897;BME280;52677;50.898;10.854;2022-07-23T00:31:19;98694.28;;;18.01;76.13
65897;BME280;52677;50.898;10.854;2022-07-23T00:33:19;98684.22;;;18.04;75.56
65897;BME280;52677;50.898;10.854;2022-07-23T00:35:21;98687.84;;;18.04;76.15
65897;BME280;52677;50.898;10.854;2022-07-23T00:37:21;98691.13;;;17.99;76.60
65897;BME280;52677;50.898;10.854;2022-07-23T00:39:21;98698.72;;;17.99;76.33
65897;BME280;52677;50.898;10.854;2022-07-23T00:41:22;98704.00;;;17.93;76.98
65897;BME280;52677;50.898;10.854;2022-07-23T00:43:23;98699.19;;;17.93;77.08
65897;BME280;52677;50.898;10.854;2022-07-23T00:45:23;98700.75;;;17.94;76.57
65897;BME280;52677;50.898;10.854;2022-07-23T00:47:24;98695.56;;;17.96;76.53
65897;BME280;52677;50.898;10.854;2022-07-23T00:49:27;98689.97;;;17.96;76.65
65897;BME280;52677;50.898;10.854;2022-07-23T00:51:27;98701.94;;;17.97;76.91
65897;BME280;52677;50.898;10.854;2022-07-23T00:53:28;98698.75;;;17.95;76.86
65897;BME280;52677;50.898;10.854;2022-07-23T00:55:28;98706.78;;;17.93;76.90
65897;BME280;52677;50.898;10.854;2022-07-23T00:57:29;98698.47;;;17.89;76.53
65897;BME280;52677;50.898;10.854;2022-07-23T00:59:29;98704.88;;;17.86;76.56
65897;BME280;52677;50.898;10.854;2022-07-23T01:01:30;98700.13;;;17.83;76.38
65897;BME280;52677;50.898;10.854;2022-07-23T01:03:30;98694.53;;;17.83;76.74
65897;BME280;52677;50.898;10.854;2022-07-23T01:05:30;98688.59;;;17.78;76.94
65897;BME280;52677;50.898;10.854;2022-07-23T01:07:31;98683.81;;;17.78;76.81
65897;BME280;52677;50.898;10.854;2022-07-23T01:09:31;98672.75;;;17.71;76.95
65897;BME280;52677;50.898;10.854;2022-07-23T01:11:34;98671.94;;;17.67;77.07
65897;BME280;52677;50.898;10.854;2022-07-23T01:13:35;98673.63;;;17.61;77.02
65897;BME280;52677;50.898;10.854;2022-07-23T01:15:37;98672.03;;;17.60;76.96
65897;BME280;52677;50.898;10.854;2022-07-23T01:17:37;98673.25;;;17.59;77.36
65897;BME280;52677;50.898;10.854;2022-07-23T01:19:38;98679.31;;;17.54;77.22
65897;BME280;52677;50.898;10.854;2022-07-23T01:21:41;98676.13;;;17.55;77.27
65897;BME280;52677;50.898;10.854;2022-07-23T01:23:41;98666.94;;;17.55;77.04
65897;BME280;52677;50.898;10.854;2022-07-23T01:25:49;98669.72;;;17.55;77.05
65897;BME280;52677;50.898;10.854;2022-07-23T01:27:53;98672.56;;;17.51;77.66
65897;BME280;52677;50.898;10.854;2022-07-23T01:29:54;98672.19;;;17.49;77.45
65897;BME280;52677;50.898;10.854;2022-07-23T01:31:55;98671.03;;;17.47;77.42
65897;BME280;52677;50.898;10.854;2022-07-23T01:33:55;98670.66;;;17.45;77.12
65897;BME280;52677;50.898;10.854;2022-07-23T01:35:55;98677.03;;;17.45;77.40
65897;BME280;52677;50.898;10.854;2022-07-23T01:37:56;98670.28;;;17.42;77.97
65897;BME280;52677;50.898;10.854;2022-07-23T01:39:56;98671.50;;;17.41;77.49
65897;BME280;52677;50.898;10.854;2022-07-23T01:41:56;98666.25;;;17.44;77.37
65897;BME280;52677;50.898;10.854;2022-07-23T01:43:57;98657.56;;;17.38;77.76
65897;BME280;52677;50.898;10.854;2022-07-23T01:45:57;98664.75;;;17.39;77.68
65897;BME280;52677;50.898;10.854;2022-07-23T01:47:57;98650.78;;;17.35;77.71
65897;BME280;52677;50.898;10.854;2022-07-23T01:49:58;98643.59;;;17.38;77.44
65897;BME280;52677;50.898;10.854;2022-07-23T01:51:58;98638.78;;;17.38;77.70
65897;BME280;52677;50.898;10.854;2022-07-23T01:54:02;98634.38;;;17.37;77.56
65897;BME280;52677;50.898;10.854;2022-07-23T01:56:02;98625.97;;;17.37;77.64
65897;BME280;52677;50.898;10.854;2022-07-23T01:58:03;98619.25;;;17.35;77.70
65897;BME280;52677;50.898;10.854;2022-07-23T02:00:04;98620.03;;;17.35;77.74
65897;BME280;52677;50.898;10.854;2022-07-23T02:02:04;98622.03;;;17.35;77.97
65897;BME280;52677;50.898;10.854;2022-07-23T02:04:05;98624.09;;;17.31;78.24
65897;BME280;52677;50.898;10.854;2022-07-23T02:06:05;98620.59;;;17.23;78.71
65897;BME280;52677;50.898;10.854;2022-07-23T02:08:06;98615.47;;;17.18;78.91
65897;BME280;52677;50.898;10.854;2022-07-23T02:10:07;98620.25;;;17.18;78.93
65897;BME280;52677;50.898;10.854;2022-07-23T02:12:07;98633.03;;;17.19;78.86
65897;BME280;52677;50.898;10.854;2022-07-23T02:14:08;98641.47;;;17.15;79.21
65897;BME280;52677;50.898;10.854;2022-07-23T02:16:08;98636.69;;;17.12;79.11
65897;BME280;52677;50.898;10.854;2022-07-23T02:18:09;98641.50;;;17.11;79.69
65897;BME280;52677;50.898;10.854;2022-07-23T02:20:10;98637.91;;;17.11;79.71
65897;BME280;52677;50.898;10.854;2022-07-23T02:22:10;98639.88;;;17.14;79.65
65897;BME280;52677;50.898;10.854;2022-07-23T02:24:11;98643.13;;;17.09;79.75
65897;BME280;52677;50.898;10.854;2022-07-23T02:26:11;98692.22;;;17.13;79.39
65897;BME280;52677;50.898;10.854;2022-07-23T02:28:11;98784.53;;;17.06;79.84
65897;BME280;52677;50.898;10.854;2022-07-23T02:30:12;98809.66;;;17.10;79.78
65897;BME280;52677;50.898;10.854;2022-07-23T02:32:12;98809.22;;;17.11;79.90
65897;BME280;52677;50.898;10.854;2022-07-23T02:34:13;98824.41;;;17.14;80.31
65897;BME280;52677;50.898;10.854;2022-07-23T02:36:13;98806.41;;;17.15;80.41
65897;BME280;52677;50.898;10.854;2022-07-23T02:38:14;98742.13;;;17.15;80.31
65897;BME280;52677;50.898;10.854;2022-07-23T02:40:14;98724.19;;;17.09;82.70
65897;BME280;52677;50.898;10.854;2022-07-23T02:42:15;98728.66;;;17.03;84.13
65897;BME280;52677;50.898;10.854;2022-07-23T02:44:15;98702.06;;;16.88;86.69
65897;BME280;52677;50.898;10.854;2022-07-23T02:46:16;98680.91;;;16.87;85.03
65897;BME280;52677;50.898;10.854;2022-07-23T02:48:16;98649.34;;;16.90;87.34
65897;BME280;52677;50.898;10.854;2022-07-23T02:50:17;98660.25;;;16.80;88.00
65897;BME280;52677;50.898;10.854;2022-07-23T02:52:17;98669.53;;;16.67;89.44
65897;BME280;52677;50.898;10.854;2022-07-23T02:54:17;98662.00;;;16.60;90.09
65897;BME280;52677;50.898;10.854;2022-07-23T02:56:18;98640.13;;;16.55;90.66
65897;BME280;52677;50.898;10.854;2022-07-23T02:58:18;98615.41;;;16.50;91.89
65897;BME280;52677;50.898;10.854;2022-07-23T03:00:18;98609.53;;;16.41;93.61
65897;BME280;52677;50.898;10.854;2022-07-23T03:02:19;98604.81;;;16.34;93.83
65897;BME280;52677;50.898;10.854;2022-07-23T03:04:19;98593.34;;;16.21;95.49
65897;BME280;52677;50.898;10.854;2022-07-23T03:06:20;98596.59;;;16.16;95.79
65897;BME280;52677;50.898;10.854;2022-07-23T03:08:20;98606.97;;;16.12;96.96
65897;BME280;52677;50.898;10.854;2022-07-23T03:10:20;98613.03;;;16.04;98.12
65897;BME280;52677;50.898;10.854;2022-07-23T03:12:21;98629.78;;;16.04;97.46
65897;BME280;52677;50.898;10.854;2022-07-23T03:14:21;98636.19;;;16.00;98.23
65897;BME280;52677;50.898;10.854;2022-07-23T03:16:21;98631.78;;;16.07;96.14
65897;BME280;52677;50.898;10.854;2022-07-23T03:18:22;98644.53;;;16.08;97.10
65897;BME280;52677;50.898;10.854;2022-07-23T03:20:22;98658.06;;;16.09;96.34
65897;BME280;52677;50.898;10.854;2022-07-23T03:22:22;98662.81;;;16.12;95.87
65897;BME280;52677;50.898;10.854;2022-07-23T03:24:23;98664.78;;;16.15;94.69
65897;BME280;52677;50.898;10.854;2022-07-23T03:26:43;98645.19;;;16.22;92.55
65897;BME280;52677;50.898;10.854;2022-07-23T03:28:44;98648.25;;;16.39;96.19
65897;BME280;52677;50.898;10.854;2022-07-23T03:30:47;98649.44;;;16.38;94.37
65897;BME280;52677;50.898;10.854;2022-07-23T03:32:48;98667.03;;;16.35;95.14
65897;BME280;52677;50.898;10.854;2022-07-23T03:34:48;98650.69;;;16.29;95.94
65897;BME280;52677;50.898;10.854;2022-07-23T03:36:49;98623.25;;;16.24;96.26
65897;BME280;52677;50.898;10.854;2022-07-23T03:38:49;98619.66;;;16.20;97.51
65897;BME280;52677;50.898;10.854;2022-07-23T03:40:50;98620.16;;;16.12;98.36
65897;BME280;52677;50.898;10.854;2022-07-23T03:42:51;98625.72;;;16.12;97.47
65897;BME280;52677;50.898;10.854;2022-07-23T03:44:51;98622.94;;;16.15;97.23
65897;BME280;52677;50.898;10.854;2022-07-23T03:46:52;98622.94;;;16.12;100.00
65897;BME280;52677;50.898;10.854;2022-07-23T03:48:52;98618.59;;;16.07;97.80
65897;BME280;52677;50.898;10.854;2022-07-23T03:50:53;98626.19;;;16.07;98.24
65897;BME280;52677;50.898;10.854;2022-07-23T03:52:53;98629.31;;;16.12;95.80
65897;BME280;52677;50.898;10.854;2022-07-23T03:54:54;98611.34;;;16.13;96.93
65897;BME280;52677;50.898;10.854;2022-07-23T03:56:54;98621.78;;;16.09;99.23
65897;BME280;52677;50.898;10.854;2022-07-23T03:58:54;98635.72;;;16.09;99.94
65897;BME280;52677;50.898;10.854;2022-07-23T04:00:55;98644.16;;;16.02;100.00
65897;BME280;52677;50.898;10.854;2022-07-23T04:02:55;98641.41;;;15.98;100.00
65897;BME280;52677;50.898;10.854;2022-07-23T04:04:55;98642.56;;;16.01;98.46
65897;BME280;52677;50.898;10.854;2022-07-23T04:06:56;98659.63;;;16.10;95.39
65897;BME280;52677;50.898;10.854;2022-07-23T04:08:56;98680.28;;;16.20;95.01
65897;BME280;52677;50.898;10.854;2022-07-23T04:10:56;98716.16;;;16.21;97.72
65897;BME280;52677;50.898;10.854;2022-07-23T04:12:57;98732.53;;;16.19;98.23
65897;BME280;52677;50.898;10.854;2022-07-23T04:14:57;98718.63;;;16.16;98.80
65897;BME280;52677;50.898;10.854;2022-07-23T04:16:57;98719.84;;;16.11;99.90
65897;BME280;52677;50.898;10.854;2022-07-23T04:18:58;98724.25;;;16.05;100.00
65897;BME280;52677;50.898;10.854;2022-07-23T04:20:58;98726.28;;;16.01;100.00
65897;BME280;52677;50.898;10.854;2022-07-23T04:22:58;98739.84;;;16.02;100.00
65897;BME280;52677;50.898;10.854;2022-07-23T04:24:59;98731.03;;;16.04;100.00
65897;BME280;52677;50.898;10.854;2022-07-23T04:27:00;98722.63;;;16.11;100.00
65897;BME280;52677;50.898;10.854;2022-07-23T04:29:00;98680.84;;;15.97;100.00
65897;BME280;52677;50.898;10.854;2022-07-23T04:31:00;98665.78;;;15.91;100.00
65897;BME280;52677;50.898;10.854;2022-07-23T04:33:01;98653.44;;;15.85;100.00
65897;BME280;52677;50.898;10.854;2022-07-23T04:35:01;98649.13;;;15.77;100.00
65897;BME280;52677;50.898;10.854;2022-07-23T04:37:02;98651.50;;;15.78;100.00
65897;BME280;52677;50.898;10.854;2022-07-23T04:39:02;98662.66;;;15.82;100.00
65897;BME280;52677;50.898;10.854;2022-07-23T04:41:03;98675.41;;;15.83;100.00
65897;BME280;52677;50.898;10.854;2022-07-23T04:43:03;98671.81;;;15.82;100.00
65897;BME280;52677;50.898;10.854;2022-07-23T04:45:05;98669.03;;;15.82;100.00
65897;BME280;52677;50.898;10.854;2022-07-23T04:47:06;98679.38;;;15.82;100.00
65897;BME280;52677;50.898;10.854;2022-07-23T04:49:06;98675.81;;;15.81;100.00
65897;BME280;52677;50.898;10.854;2022-07-23T04:51:06;98674.19;;;15.84;100.00
65897;BME280;52677;50.898;10.854;2022-07-23T04:53:07;98679.34;;;15.89;100.00
65897;BME280;52677;50.898;10.854;2022-07-23T04:55:07;98673.72;;;15.92;100.00
65897;BME280;52677;50.898;10.854;2022-07-23T04:57:08;98682.47;;;15.98;99.76
65897;BME280;52677;50.898;10.854;2022-07-23T04:59:08;98678.06;;;16.00;99.68
65897;BME280;52677;50.898;10.854;2022-07-23T05:01:08;98682.00;;;16.03;100.00
65897;BME280;52677;50.898;10.854;2022-07-23T05:03:09;98694.38;;;16.02;99.64
65897;BME280;52677;50.898;10.854;2022-07-23T05:05:09;98697.56;;;16.04;99.09
65897;BME280;52677;50.898;10.854;2022-07-23T05:07:10;98690.81;;;16.01;99.32
65897;BME280;52677;50.898;10.854;2022-07-23T05:09:10;98698.78;;;15.99;99.18
65897;BME280;52677;50.898;10.854;2022-07-23T05:11:10;98702.38;;;16.00;100.00
65897;BME280;52677;50.898;10.854;2022-07-23T05:13:11;98705.59;;;15.98;99.75
65897;BME280;52677;50.898;10.854;2022-07-23T05:15:11;98702.38;;;16.00;100.00
65897;BME280;52677;50.898;10.854;2022-07-23T05:17:11;98706.38;;;15.99;100.00
65897;BME280;52677;50.898;10.854;2022-07-23T05:19:12;98715.97;;;15.98;100.00
65897;BME280;52677;50.898;10.854;2022-07-23T05:21:12;98704.72;;;16.05;99.42
65897;BME280;52677;50.898;10.854;2022-07-23T05:23:13;98714.63;;;16.13;100.00
65897;BME280;52677;50.898;10.854;2022-07-23T05:25:13;98710.56;;;16.25;99.23
65897;BME280;52677;50.898;10.854;2022-07-23T05:27:13;98707.72;;;16.32;98.52
65897;BME280;52677;50.898;10.854;2022-07-23T05:29:14;98701.31;;;16.39;99.06
65897;BME280;52677;50.898;10.854;2022-07-23T05:31:14;98706.47;;;16.40;99.68
65897;BME280;52677;50.898;10.854;2022-07-23T05:33:14;98698.09;;;16.40;100.00
65897;BME280;52677;50.898;10.854;2022-07-23T05:35:15;98705.22;;;16.45;100.00
65897;BME280;52677;50.898;10.854;2022-07-23T05:37:15;98713.19;;;16.46;99.54
65897;BME280;52677;50.898;10.854;2022-07-23T05:39:16;98707.22;;;16.48;97.93
65897;BME280;52677;50.898;10.854;2022-07-23T05:41:16;98706.78;;;16.49;98.85
65897;BME280;52677;50.898;10.854;2022-07-23T05:43:16;98702.84;;;16.43;99.73
65897;BME280;52677;50.898;10.854;2022-07-23T05:45:17;98714.44;;;16.38;100.00
65897;BME280;52677;50.898;10.854;2022-07-23T05:47:17;98710.47;;;16.36;100.00
65897;BME280;52677;50.898;10.854;2022-07-23T05:49:18;98708.09;;;16.34;99.90
65897;BME280;52677;50.898;10.854;2022-07-23T05:51:21;98723.25;;;16.37;99.74
65897;BME280;52677;50.898;10.854;2022-07-23T05:53:22;98724.81;;;16.38;99.91
65897;BME280;52677;50.898;10.854;2022-07-23T05:55:22;98721.25;;;16.37;99.15
65897;BME280;52677;50.898;10.854;2022-07-23T05:57:22;98721.66;;;16.36;98.96
65897;BME280;52677;50.898;10.854;2022-07-23T05:59:23;98726.44;;;16.35;99.34
65897;BME280;52677;50.898;10.854;2022-07-23T06:01:23;98721.25;;;16.37;98.46
65897;BME280;52677;50.898;10.854;2022-07-23T06:03:24;98721.97;;;16.45;98.71
65897;BME280;52677;50.898;10.854;2022-07-23T06:05:24;98714.00;;;16.47;98.36
65897;BME280;52677;50.898;10.854;2022-07-23T06:07:25;98717.50;;;16.54;98.79
65897;BME280;52677;50.898;10.854;2022-07-23T06:09:25;98719.50;;;16.57;98.78
65897;BME280;52677;50.898;10.854;2022-07-23T06:11:26;98720.66;;;16.60;97.89
65897;BME280;52677;50.898;10.854;2022-07-23T06:13:26;98720.28;;;16.58;97.58
65897;BME280;52677;50.898;10.854;2022-07-23T06:15:26;98716.66;;;16.61;97.59
65897;BME280;52677;50.898;10.854;2022-07-23T06:17:27;98717.44;;;16.65;97.21
65897;BME280;52677;50.898;10.854;2022-07-23T06:19:28;98722.19;;;16.68;97.73
65897;BME280;52677;50.898;10.854;2022-07-23T06:21:28;98717.00;;;16.70;97.10
65897;BME280;52677;50.898;10.854;2022-07-23T06:23:28;98724.94;;;16.75;97.49
65897;BME280;52677;50.898;10.854;2022-07-23T06:25:29;98724.50;;;16.80;96.99
65897;BME280;52677;50.898;10.854;2022-07-23T06:27:29;98727.31;;;16.80;96.40
65897;BME280;52677;50.898;10.854;2022-07-23T06:29:29;98740.47;;;16.80;97.83
65897;BME280;52677;50.898;10.854;2022-07-23T06:31:30;98730.47;;;16.82;97.76
65897;BME280;52677;50.898;10.854;2022-07-23T06:33:30;98724.47;;;16.84;97.88
65897;BME280;52677;50.898;10.854;2022-07-23T06:35:30;98727.19;;;16.88;96.78
65897;BME280;52677;50.898;10.854;2022-07-23T06:37:30;98723.63;;;16.87;95.29
65897;BME280;52677;50.898;10.854;2022-07-23T06:39:31;98731.63;;;16.89;95.04
65897;BME280;52677;50.898;10.854;2022-07-23T06:41:31;98732.84;;;16.84;95.22
65897;BME280;52677;50.898;10.854;2022-07-23T06:43:32;98729.63;;;16.85;95.24
65897;BME280;52677;50.898;10.854;2022-07-23T06:45:32;98732.34;;;16.93;95.07
65897;BME280;52677;50.898;10.854;2022-07-23T06:47:32;98731.06;;;17.01;95.86
65897;BME280;52677;50.898;10.854;2022-07-23T06:49:33;98725.00;;;17.09;93.62
65897;BME280;52677;50.898;10.854;2022-07-23T06:51:33;98737.63;;;17.25;93.69
65897;BME280;52677;50.898;10.854;2022-07-23T06:53:34;98733.06;;;17.38;94.17
65897;BME280;52677;50.898;10.854;2022-07-23T06:55:34;98725.78;;;17.44;94.73
65897;BME280;52677;50.898;10.854;2022-07-23T06:57:38;98718.91;;;17.52;92.68
65897;BME280;52677;50.898;10.854;2022-07-23T06:59:38;98720.81;;;17.59;93.83
65897;BME280;52677;50.898;10.854;2022-07-23T07:01:40;98715.91;;;17.70;96.07
65897;BME280;52677;50.898;10.854;2022-07-23T07:03:40;98718.50;;;17.84;94.07
65897;BME280;52677;50.898;10.854;2022-07-23T07:05:41;98728.72;;;17.98;91.36
65897;BME280;52677;50.898;10.854;2022-07-23T07:07:41;98734.16;;;18.09;92.66
65897;BME280;52677;50.898;10.854;2022-07-23T07:09:41;98728.13;;;18.10;92.32
65897;BME280;52677;50.898;10.854;2022-07-23T07:11:42;98716.09;;;18.13;91.03
65897;BME280;52677;50.898;10.854;2022-07-23T07:13:43;98725.75;;;18.09;89.06
65897;BME280;52677;50.898;10.854;2022-07-23T07:15:43;98725.72;;;18.12;89.77
65897;BME280;52677;50.898;10.854;2022-07-23T07:17:43;98734.53;;;18.11;90.75
65897;BME280;52677;50.898;10.854;2022-07-23T07:19:44;98736.41;;;18.21;88.62
65897;BME280;52677;50.898;10.854;2022-07-23T07:21:44;98734.31;;;18.25;88.98
65897;BME280;52677;50.898;10.854;2022-07-23T07:23:45;98732.66;;;18.28;89.12
65897;BME280;52677;50.898;10.854;2022-07-23T07:25:45;98729.75;;;18.35;88.11
65897;BME280;52677;50.898;10.854;2022-07-23T07:27:45;98738.13;;;18.38;87.19
65897;BME280;52677;50.898;10.854;2022-07-23T07:29:46;98733.59;;;18.44;87.14
65897;BME280;52677;50.898;10.854;2022-07-23T07:31:46;98737.47;;;18.54;87.05
65897;BME280;52677;50.898;10.854;2022-07-23T07:33:46;98724.19;;;18.58;85.83
65897;BME280;52677;50.898;10.854;2022-07-23T07:35:47;98724.47;;;18.67;85.36
65897;BME280;52677;50.898;10.854;2022-07-23T07:37:47;98715.50;;;18.76;87.38
65897;BME280;52677;50.898;10.854;2022-07-23T07:39:47;98719.75;;;18.84;86.83
65897;BME280;52677;50.898;10.854;2022-07-23T07:41:48;98732.38;;;18.96;85.40
65897;BME280;52677;50.898;10.854;2022-07-23T07:43:48;98739.56;;;18.97;84.33
65897;BME280;52677;50.898;10.854;2022-07-23T07:45:48;98742.41;;;18.93;84.96
65897;BME280;52677;50.898;10.854;2022-07-23T07:47:50;98745.22;;;18.93;84.47
65897;BME280;52677;50.898;10.854;2022-07-23T07:49:50;98752.47;;;18.91;84.32
65897;BME280;52677;50.898;10.854;2022-07-23T07:51:51;98772.19;;;18.87;83.96
65897;BME280;52677;50.898;10.854;2022-07-23T07:53:51;98781.19;;;18.75;83.18
65897;BME280;52677;50.898;10.854;2022-07-23T07:55:51;98769.34;;;18.64;83.49
65897;BME280;52677;50.898;10.854;2022-07-23T07:57:52;98760.72;;;18.51;83.46
65897;BME280;52677;50.898;10.854;2022-07-23T07:59:52;98777.84;;;18.57;84.26
65897;BME280;52677;50.898;10.854;2022-07-23T08:01:52;98779.91;;;18.52;83.74
65897;BME280;52677;50.898;10.854;2022-07-23T08:03:53;98784.78;;;18.48;84.39
65897;BME280;52677;50.898;10.854;2022-07-23T08:05:53;98789.69;;;18.41;85.02
65897;BME280;52677;50.898;10.854;2022-07-23T08:07:55;98796.56;;;18.36;84.90
65897;BME280;52677;50.898;10.854;2022-07-23T08:09:56;98800.13;;;18.10;85.17
65897;BME280;52677;50.898;10.854;2022-07-23T08:11:56;98801.69;;;18.14;84.79
65897;BME280;52677;50.898;10.854;2022-07-23T08:13:56;98803.31;;;18.12;85.60
65897;BME280;52677;50.898;10.854;2022-07-23T08:15:57;98804.06;;;18.16;86.52
65897;BME280;52677;50.898;10.854;2022-07-23T08:17:57;98791.19;;;18.22;85.70
65897;BME280;52677;50.898;10.854;2022-07-23T08:19:58;98793.75;;;18.36;85.32
65897;BME280;52677;50.898;10.854;2022-07-23T08:21:58;98797.50;;;18.53;84.61
65897;BME280;52677;50.898;10.854;2022-07-23T08:23:59;98804.28;;;18.56;82.94
65897;BME280;52677;50.898;10.854;2022-07-23T08:25:59;98805.75;;;18.64;83.46
65897;BME280;52677;50.898;10.854;2022-07-23T08:28:03;98792.50;;;18.68;83.04
65897;BME280;52677;50.898;10.854;2022-07-23T08:30:04;98791.81;;;18.87;80.38
65897;BME280;52677;50.898;10.854;2022-07-23T08:32:05;98788.97;;;19.11;80.41
65897;BME280;52677;50.898;10.854;2022-07-23T08:34:05;98791.09;;;19.26;81.09
65897;BME280;52677;50.898;10.854;2022-07-23T08:36:06;98790.94;;;19.14;79.43
65897;BME280;52677;50.898;10.854;2022-07-23T08:38:08;98787.25;;;19.17;80.47
65897;BME280;52677;50.898;10.854;2022-07-23T08:40:10;98782.75;;;19.23;79.45
65897;BME280;52677;50.898;10.854;2022-07-23T08:42:13;98775.47;;;19.25;81.00
65897;BME280;52677;50.898;10.854;2022-07-23T08:44:16;98778.25;;;19.29;79.51
65897;BME280;52677;50.898;10.854;2022-07-23T08:46:16;98786.00;;;19.41;80.80
65897;BME280;52677;50.898;10.854;2022-07-23T08:48:21;98777.59;;;19.41;79.17
65897;BME280;52677;50.898;10.854;2022-07-23T08:50:23;98790.69;;;19.48;79.52
65897;BME280;52677;50.898;10.854;2022-07-23T08:52:24;98784.16;;;19.54;80.76
65897;BME280;52677;50.898;10.854;2022-07-23T08:54:25;98790.06;;;19.60;78.36
65897;BME280;52677;50.898;10.854;2022-07-23T08:56:26;98795.06;;;19.72;78.10
65897;BME280;52677;50.898;10.854;2022-07-23T08:58:27;98794.00;;;19.86;77.93
65897;BME280;52677;50.898;10.854;2022-07-23T09:00:28;98801.38;;;19.96;78.82
65897;BME280;52677;50.898;10.854;2022-07-23T09:02:28;98807.16;;;19.89;77.80
65897;BME280;52677;50.898;10.854;2022-07-23T09:04:30;98814.72;;;19.49;79.50
65897;BME280;52677;50.898;10.854;2022-07-23T09:06:31;98824.47;;;19.21;79.40
65897;BME280;52677;50.898;10.854;2022-07-23T09:10:53;98817.16;;;19.03;80.65
65897;BME280;52677;50.898;10.854;2022-07-23T09:12:54;98821.91;;;19.06;79.97
65897;BME280;52677;50.898;10.854;2022-07-23T09:14:54;98829.34;;;18.93;79.83
65897;BME280;52677;50.898;10.854;2022-07-23T09:16:55;98832.25;;;19.09;79.16
65897;BME280;52677;50.898;10.854;2022-07-23T09:18:59;98821.28;;;19.19;80.84
65897;BME280;52677;50.898;10.854;2022-07-23T09:23:10;98827.19;;;19.24;78.41
65897;BME280;52677;50.898;10.854;2022-07-23T09:25:16;98824.03;;;19.22;80.08
65897;BME280;52677;50.898;10.854;2022-07-23T09:27:17;98832.13;;;19.17;80.19
65897;BME280;52677;50.898;10.854;2022-07-23T09:29:21;98831.97;;;19.04;80.88
65897;BME280;52677;50.898;10.854;2022-07-23T09:31:23;98830.06;;;18.97;83.07
65897;BME280;52677;50.898;10.854;2022-07-23T09:33:25;98842.91;;;18.95;81.70
65897;BME280;52677;50.898;10.854;2022-07-23T09:35:47;98834.81;;;19.00;83.27
65897;BME280;52677;50.898;10.854;2022-07-23T09:38:01;98826.28;;;18.84;85.69
65897;BME280;52677;50.898;10.854;2022-07-23T09:40:07;98838.00;;;18.79;85.00
65897;BME280;52677;50.898;10.854;2022-07-23T09:42:19;98832.00;;;18.77;84.80
65897;BME280;52677;50.898;10.854;2022-07-23T09:44:20;98838.81;;;18.76;85.60
65897;BME280;52677;50.898;10.854;2022-07-23T09:46:22;98835.03;;;18.86;85.75
65897;BME280;52677;50.898;10.854;2022-07-23T09:48:26;98836.91;;;18.69;85.99
65897;BME280;52677;50.898;10.854;2022-07-23T09:50:26;98829.97;;;18.77;85.23
65897;BME280;52677;50.898;10.854;2022-07-23T09:52:30;98834.91;;;18.97;84.54
65897;BME280;52677;50.898;10.854;2022-07-23T09:54:34;98837.81;;;19.13;84.79
65897;BME280;52677;50.898;10.854;2022-07-23T09:56:36;98843.31;;;19.20;82.80
65897;BME280;52677;50.898;10.854;2022-07-23T09:58:39;98837.44;;;19.34;81.97
65897;BME280;52677;50.898;10.854;2022-07-23T10:00:49;98832.59;;;19.58;82.36
65897;BME280;52677;50.898;10.854;2022-07-23T10:02:51;98826.16;;;19.81;81.22
65897;BME280;52677;50.898;10.854;2022-07-23T10:04:53;98838.88;;;20.06;81.21
65897;BME280;52677;50.898;10.854;2022-07-23T10:07:00;98831.31;;;20.23;80.13
65897;BME280;52677;50.898;10.854;2022-07-23T10:09:01;98836.19;;;20.38;78.56
65897;BME280;52677;50.898;10.854;2022-07-23T10:11:02;98829.56;;;20.48;78.09
65897;BME280;52677;50.898;10.854;2022-07-23T10:13:04;98826.31;;;20.50;76.67
65897;BME280;52677;50.898;10.854;2022-07-23T10:15:24;98836.69;;;20.53;77.23
65897;BME280;52677;50.898;10.854;2022-07-23T10:17:28;98834.84;;;20.43;76.09
65897;BME280;52677;50.898;10.854;2022-07-23T10:19:30;98831.16;;;20.30;75.66
65897;BME280;52677;50.898;10.854;2022-07-23T10:21:38;98834.66;;;20.34;77.53
65897;BME280;52677;50.898;10.854;2022-07-23T10:23:51;98834.16;;;20.39;76.37
65897;BME280;52677;50.898;10.854;2022-07-23T10:29:06;98826.78;;;20.29;76.58
65897;BME280;52677;50.898;10.854;2022-07-23T10:33:41;98834.22;;;20.35;75.93
65897;BME280;52677;50.898;10.854;2022-07-23T10:35:55;98830.38;;;20.29;76.19
65897;BME280;52677;50.898;10.854;2022-07-23T10:38:57;98833.28;;;20.06;77.01
65897;BME280;52677;50.898;10.854;2022-07-23T10:40:31;98830.22;;;20.16;77.14
65897;BME280;52677;50.898;10.854;2022-07-23T10:42:33;98829.19;;;20.27;77.00